createdAt,value
2023-03-29T00:26:22.737Z,7.81
2023-03-29T00:46:22.728Z,7.75
2023-03-29T01:06:22.888Z,7.81
2023-03-29T01:26:22.702Z,7.87
2023-03-29T01:46:22.694Z,7.87
2023-03-29T02:06:22.678Z,7.75
2023-03-29T02:26:22.670Z,7.68
2023-03-29T02:46:22.671Z,7.68
2023-03-29T03:06:22.638Z,7.62
2023-03-29T03:26:22.632Z,7.81
2023-03-29T03:46:22.630Z,7.68
2023-03-29T04:06:22.620Z,7.62
2023-03-29T04:26:22.595Z,7.68
2023-03-29T04:46:22.644Z,7.81
2023-03-29T05:06:22.589Z,7.68
2023-03-29T05:26:22.570Z,7.62
2023-03-29T06:06:22.549Z,7.62
2023-03-29T06:26:22.553Z,7.62
2023-03-29T06:46:22.527Z,7.75
2023-03-29T07:06:22.546Z,7.75
2023-03-29T07:26:22.502Z,7.75
2023-03-29T07:46:22.485Z,7.81
2023-03-29T08:06:22.476Z,7.81
2023-03-29T08:26:22.456Z,7.81
2023-03-29T08:46:22.447Z,7.68
2023-03-29T09:06:22.425Z,7.81
2023-03-29T09:26:22.400Z,7.68
2023-03-29T09:46:22.403Z,7.68
2023-03-29T10:06:22.381Z,7.87
2023-03-29T10:26:22.356Z,7.75
2023-03-29T10:46:22.333Z,7.62
2023-03-29T11:06:22.322Z,7.87
2023-03-29T11:26:22.302Z,7.75
2023-03-29T11:46:22.264Z,7.87
2023-03-29T12:06:22.305Z,7.75
2023-03-29T12:26:22.228Z,7.87
2023-03-29T12:46:22.220Z,7.81
2023-03-29T13:06:22.228Z,7.87
2023-03-29T13:26:22.158Z,7.87
2023-03-29T13:46:22.137Z,7.93
2023-03-29T14:06:22.100Z,7.81
2023-03-29T14:26:22.096Z,8.00
2023-03-29T14:46:22.059Z,7.87
2023-03-29T15:06:22.036Z,8.00
2023-03-29T15:26:22.037Z,8.00
2023-03-29T15:46:21.988Z,7.87
2023-03-29T16:06:21.966Z,8.00
2023-03-29T16:26:21.952Z,7.93
2023-03-29T16:46:21.950Z,8.06
2023-03-29T17:06:21.913Z,8.12
2023-03-29T17:26:21.881Z,8.00
2023-03-29T17:46:21.852Z,8.12
2023-03-29T18:06:21.847Z,8.00
2023-03-29T18:26:21.813Z,8.18
2023-03-29T18:46:21.811Z,7.87
2023-03-29T19:06:21.784Z,8.12
2023-03-29T19:26:21.777Z,8.00
2023-03-29T19:46:21.755Z,8.06
2023-03-29T20:06:21.725Z,8.06
2023-03-29T20:26:21.694Z,8.06
2023-03-29T20:46:21.710Z,8.00
2023-03-29T21:06:21.675Z,8.06
2023-03-29T21:26:21.642Z,8.18
2023-03-29T22:26:21.641Z,8.06
2023-03-29T22:46:21.571Z,8.06
2023-03-29T23:06:21.538Z,8.12
2023-03-29T23:26:21.547Z,8.18
